Terminal Aerodrome Forecast
Issued by NWS

Home | Current Version | Previous Version | Text Only | Print | Product List | Glossary On
Versions: 1 2 3 4 5 6 7 8 9 10 11 12 13 14 15 16 17 18 19 20 21 22 23
488
FTUS43 KDLH 251146
TAFHYR
TAF
KHYR 251146Z 2512/2612 28002KT P6SM VCSH BKN006 OVC018
     FM251400 29006KT 6SM -SHRA BR BKN008 OVC014
     FM251700 30007KT 6SM -SHRA BR SCT010 BKN014 OVC030
     FM252200 31007KT P6SM VCSH SCT020 BKN035 OVC050
     FM260100 32003KT P6SM BKN050=

USA.gov is the U.S. government's official web portal to all federal, state and local government web resources and services.